Time;durP1;ratioP1;P1;durP2;ratioP2;P2;SDS_P1;SDS_P2;PMS_P1;PMS_P2;Temp;Humidity;BMP_temperature;BMP_pressure;BME280_temperature;BME280_humidity;BME280_pressure;Samples;Min_cycle;Max_cycle;Signal;HPM_P1;HPM_P2
2023/08/09 00:00:32;;;;;;;5.97;3.90;;;;;;;19.45;74.80;98835.38;4925597;28;20070;-69
2023/08/09 00:03:27;;;;;;;8.95;3.95;;;;;;;19.45;74.66;98840.78;4940494;28;20058;-65
2023/08/09 00:06:17;;;;;;;6.55;3.65;;;;;;;19.53;74.90;98816.38;4938639;28;20058;-66
2023/08/09 00:08:42;;;;;;;5.88;3.00;;;;;;;19.43;74.19;98815.78;4937080;28;20552;-70
2023/08/09 00:11:09;;;;;;;8.77;3.55;;;;;;;19.40;74.57;98827.00;4939042;28;20390;-68
2023/08/09 00:13:40;;;;;;;6.50;3.42;;;;;;;19.39;74.84;98815.34;4939142;28;20045;-70
2023/08/09 00:16:12;;;;;;;10.65;2.95;;;;;;;19.42;74.68;98819.50;4921199;28;20059;-71
2023/08/09 00:18:37;;;;;;;4.40;3.10;;;;;;;19.42;74.68;98828.47;4937312;28;20510;-65
2023/08/09 00:21:02;;;;;;;3.90;2.70;;;;;;;19.46;75.08;98820.81;4935033;28;20051;-66
2023/08/09 00:23:29;;;;;;;9.27;3.80;;;;;;;19.46;74.69;98818.13;4938974;28;20139;-65
2023/08/09 00:25:56;;;;;;;5.50;2.88;;;;;;;19.44;74.85;98826.41;4934090;28;20046;-64
2023/08/09 00:28:22;;;;;;;6.25;3.38;;;;;;;19.44;74.84;98822.88;4936672;28;20058;-64
2023/08/09 00:30:49;;;;;;;8.27;3.20;;;;;;;19.40;74.89;98838.66;4938090;28;20049;-67
2023/08/09 00:33:15;;;;;;;8.00;2.97;;;;;;;19.41;75.25;98823.25;4947895;28;20047;-66
2023/08/09 00:35:42;;;;;;;5.13;3.22;;;;;;;19.36;75.39;98825.66;4941720;28;20047;-66
2023/08/09 00:38:10;;;;;;;7.80;3.53;;;;;;;19.32;75.33;98830.59;4936756;28;20046;-66
2023/08/09 00:41:02;;;;;;;8.00;3.42;;;;;;;19.29;75.82;98825.59;4938256;28;20054;-65
2023/08/09 00:43:32;;;;;;;7.75;3.50;;;;;;;19.26;75.67;98833.22;4936255;28;20041;-64
2023/08/09 00:45:58;;;;;;;4.97;3.40;;;;;;;19.21;75.21;98831.88;4938412;28;20046;-66
2023/08/09 00:48:24;;;;;;;4.88;3.10;;;;;;;19.19;75.54;98836.63;4937714;28;20039;-65
2023/08/09 00:50:49;;;;;;;6.57;3.10;;;;;;;19.17;75.22;98848.69;4935018;28;20039;-67
2023/08/09 00:53:15;;;;;;;3.05;2.78;;;;;;;19.15;75.20;98846.16;4938016;28;20046;-67
2023/08/09 00:55:45;;;;;;;4.47;2.85;;;;;;;19.19;74.83;98843.91;4938146;28;20905;-67
2023/08/09 00:58:35;;;;;;;5.22;3.58;;;;;;;19.28;75.27;98840.13;4934701;28;20046;-65
2023/08/09 01:01:05;;;;;;;5.75;2.95;;;;;;;19.21;75.25;98834.59;4928359;28;20065;-67
2023/08/09 01:03:30;;;;;;;5.07;2.88;;;;;;;19.24;74.72;98841.50;4946831;28;20054;-67
2023/08/09 01:06:06;;;;;;;3.30;2.72;;;;;;;19.26;74.56;98833.22;4937722;28;20039;-67
2023/08/09 01:08:39;;;;;;;3.63;2.70;;;;;;;19.29;74.19;98836.41;4933902;28;20061;-67
2023/08/09 01:11:11;;;;;;;5.88;2.70;;;;;;;19.31;73.57;98838.88;4935009;28;20045;-67
2023/08/09 01:13:44;;;;;;;5.00;2.60;;;;;;;19.33;73.53;98834.13;4937884;28;20057;-66
2023/08/09 01:16:11;;;;;;;3.45;2.63;;;;;;;19.32;73.37;98845.97;4946438;28;20046;-67
2023/08/09 01:18:42;;;;;;;4.65;2.80;;;;;;;19.27;73.54;98849.25;4935386;28;20053;-66
2023/08/09 01:21:10;;;;;;;2.80;2.53;;;;;;;19.19;73.64;98846.59;4940499;28;20527;-66
2023/08/09 01:23:38;;;;;;;4.93;2.67;;;;;;;19.11;73.97;98849.41;4936591;28;20051;-66
2023/08/09 01:26:08;;;;;;;4.18;2.60;;;;;;;19.05;74.33;98850.97;4951920;28;20047;-66
2023/08/09 01:28:33;;;;;;;3.25;2.65;;;;;;;18.98;74.11;98844.59;4937534;28;20051;-67
2023/08/09 01:30:58;;;;;;;4.43;2.80;;;;;;;18.92;74.33;98872.34;4934659;28;20043;-66
2023/08/09 01:33:29;;;;;;;3.35;2.95;;;;;;;18.87;74.86;98847.75;4937426;28;20050;-67
2023/08/09 01:36:07;;;;;;;3.85;2.45;;;;;;;18.88;74.91;98852.13;4934698;28;20050;-67
2023/08/09 01:38:37;;;;;;;6.35;3.05;;;;;;;18.79;74.84;98850.53;4934735;28;20038;-66
2023/08/09 01:41:05;;;;;;;2.63;2.35;;;;;;;18.76;74.59;98845.47;4935318;28;20409;-67
2023/08/09 01:43:34;;;;;;;4.53;2.50;;;;;;;18.74;74.80;98879.91;4946440;28;20046;-67
2023/08/09 01:46:01;;;;;;;3.60;2.25;;;;;;;18.71;74.70;98842.50;4934938;28;20406;-66
2023/08/09 01:48:27;;;;;;;5.78;2.38;;;;;;;18.71;75.08;98847.91;4936119;28;20047;-67
2023/08/09 01:50:54;;;;;;;2.10;1.90;;;;;;;18.69;75.12;98845.38;4937270;28;20474;-66
2023/08/09 01:53:25;;;;;;;3.80;2.22;;;;;;;18.73;74.84;98849.41;4937126;28;20058;-66
2023/08/09 01:58:48;;;;;;;3.38;2.80;;;;;;;18.77;74.35;98841.75;4936068;28;20082;-66
2023/08/09 02:01:19;;;;;;;2.83;2.63;;;;;;;18.79;74.66;98867.56;4936025;28;20054;-66
2023/08/09 02:03:46;;;;;;;3.22;2.53;;;;;;;18.81;74.22;98845.78;4935976;28;20066;-66
2023/08/09 02:06:18;;;;;;;4.63;2.55;;;;;;;18.81;74.07;98846.63;4933678;28;20038;-65
2023/08/09 02:12:01;;;;;;;2.47;2.33;;;;;;;18.83;74.11;98846.44;4950807;28;20494;-66
2023/08/09 02:14:28;;;;;;;4.63;2.70;;;;;;;18.82;73.59;98850.16;4936568;28;20046;-65
2023/08/09 02:16:53;;;;;;;3.83;2.72;;;;;;;18.78;74.03;98848.84;4935407;28;20042;-67
2023/08/09 02:19:21;;;;;;;4.97;2.35;;;;;;;18.75;74.03;98860.84;4936220;28;20062;-66
2023/08/09 02:21:50;;;;;;;3.88;2.78;;;;;;;18.72;73.95;98849.56;4933751;28;20050;-66
2023/08/09 02:24:17;;;;;;;5.90;2.13;;;;;;;18.70;74.16;98859.72;4936600;28;20043;-67
2023/08/09 02:26:43;;;;;;;3.05;2.72;;;;;;;18.67;74.60;98865.47;4936576;28;20537;-67
2023/08/09 02:29:08;;;;;;;4.47;2.55;;;;;;;18.64;74.41;98879.31;4933323;28;20054;-68
2023/08/09 02:34:25;;;;;;;3.45;2.33;;;;;;;18.63;75.01;98861.44;4926678;28;20047;-67
2023/08/09 02:36:50;;;;;;;2.92;2.55;;;;;;;18.61;74.86;98864.34;4940490;28;20043;-68
2023/08/09 02:39:17;;;;;;;9.18;2.80;;;;;;;18.60;75.04;98861.81;4934693;28;20054;-65
2023/08/09 02:41:44;;;;;;;4.20;2.63;;;;;;;18.59;74.97;98866.38;4936459;28;20046;-66
2023/08/09 02:44:12;;;;;;;3.65;2.40;;;;;;;18.60;74.94;98884.25;4932424;28;20054;-66
2023/08/09 02:47:34;;;;;;;5.75;2.60;;;;;;;18.69;74.91;98861.56;4942687;28;20537;-66
2023/08/09 02:49:59;;;;;;;2.70;2.50;;;;;;;18.62;75.10;98859.78;4935098;28;20038;-66
2023/08/09 02:52:25;;;;;;;5.05;2.10;;;;;;;18.64;74.60;98852.31;4932078;28;20390;-66
2023/08/09 02:54:55;;;;;;;2.30;2.10;;;;;;;18.64;74.71;98855.00;4935335;28;20057;-66
2023/08/09 02:57:21;;;;;;;4.63;2.70;;;;;;;18.67;74.85;98858.22;4935003;28;20046;-68
2023/08/09 02:59:48;;;;;;;4.00;2.05;;;;;;;18.67;74.26;98847.41;4935295;28;20050;-67
2023/08/09 03:02:15;;;;;;;3.13;2.05;;;;;;;18.70;73.96;98862.41;4934304;28;20054;-68
2023/08/09 03:04:42;;;;;;;4.15;2.17;;;;;;;18.73;74.10;98846.69;4935782;28;20035;-68
2023/08/09 03:07:33;;;;;;;3.03;2.40;;;;;;;18.82;73.71;98855.56;4932133;28;20053;-68
2023/08/09 03:10:05;;;;;;;3.55;2.38;;;;;;;18.93;73.05;98852.44;4932455;28;20041;-68
2023/08/09 03:12:31;;;;;;;7.43;2.97;;;;;;;19.04;72.90;98854.69;4932332;28;20074;-68
2023/08/09 03:14:58;;;;;;;2.10;1.90;;;;;;;19.16;72.89;98847.84;4934913;28;20058;-69
2023/08/09 03:17:25;;;;;;;2.08;1.85;;;;;;;19.29;72.00;98852.63;4918614;28;20065;-69
2023/08/09 03:19:51;;;;;;;3.45;2.22;;;;;;;19.41;71.53;98861.09;4935663;28;20050;-70
2023/08/09 03:22:43;;;;;;;5.22;2.65;;;;;;;19.64;70.77;98840.25;4938958;28;20058;-69
2023/08/09 03:25:11;;;;;;;4.82;2.35;;;;;;;19.68;70.29;98849.66;4938995;28;20046;-69
2023/08/09 03:27:37;;;;;;;2.85;2.35;;;;;;;19.79;69.66;98840.25;4939910;28;20421;-69
2023/08/09 03:30:05;;;;;;;2.95;2.38;;;;;;;19.92;69.20;98843.97;4938791;28;20043;-69
2023/08/09 03:32:31;;;;;;;5.93;2.92;;;;;;;20.06;68.88;98844.13;4939038;28;20050;-71
2023/08/09 03:34:59;;;;;;;3.15;2.35;;;;;;;20.15;67.98;98854.66;4938139;28;20104;-70
2023/08/09 03:37:26;;;;;;;2.72;2.45;;;;;;;20.27;67.88;98853.13;4922904;28;20053;-69
2023/08/09 03:39:52;;;;;;;4.65;2.80;;;;;;;20.37;67.15;98849.31;4940215;28;20061;-69
2023/08/09 03:42:18;;;;;;;3.92;2.03;;;;;;;20.46;66.86;98851.69;4938617;28;20061;-70
2023/08/09 03:44:44;;;;;;;6.53;3.03;;;;;;;20.56;67.06;98846.81;4922729;28;20057;-69
2023/08/09 03:47:09;;;;;;;5.30;2.70;;;;;;;20.70;66.55;98863.19;4939684;28;20058;-68
2023/08/09 03:49:40;;;;;;;5.35;3.03;;;;;;;20.80;65.84;98852.88;4939556;28;20047;-68
2023/08/09 03:52:12;;;;;;;6.28;2.47;;;;;;;20.88;65.35;98852.75;4931368;28;20039;-69
2023/08/09 03:54:43;;;;;;;3.53;2.50;;;;;;;20.97;65.26;98832.63;4938394;28;20047;-69
2023/08/09 03:57:12;;;;;;;3.67;2.25;;;;;;;21.05;65.07;98837.06;4939585;28;20043;-68
2023/08/09 03:59:38;;;;;;;5.03;2.75;;;;;;;21.08;64.39;98845.63;4939360;28;20050;-69
2023/08/09 04:02:03;;;;;;;6.03;2.47;;;;;;;21.21;64.30;98845.78;4939406;28;20046;-69
2023/08/09 04:04:30;;;;;;;2.40;1.98;;;;;;;21.33;63.82;98841.47;4937838;28;20054;-69
2023/08/09 04:06:58;;;;;;;3.28;2.97;;;;;;;21.49;64.09;98848.47;4938051;28;20042;-69
2023/08/09 04:09:28;;;;;;;7.13;2.75;;;;;;;21.67;63.04;98845.25;4938166;28;20473;-69
2023/08/09 04:11:55;;;;;;;3.83;2.75;;;;;;;21.82;62.63;98843.22;4938924;28;20054;-70
2023/08/09 04:14:22;;;;;;;5.13;2.88;;;;;;;21.96;62.22;98853.13;4938011;28;20050;-70
2023/08/09 04:16:48;;;;;;;4.57;2.38;;;;;;;22.11;62.07;98842.16;4905946;28;20054;-70
2023/08/09 04:20:09;;;;;;;7.60;2.60;;;;;;;22.41;61.43;98840.78;4937829;28;20047;-70
2023/08/09 04:22:39;;;;;;;5.60;2.33;;;;;;;22.63;61.24;98871.34;4939136;28;20042;-70
2023/08/09 04:25:10;;;;;;;3.83;2.88;;;;;;;22.80;60.25;98844.66;4939125;28;20047;-69
2023/08/09 04:27:39;;;;;;;3.63;2.70;;;;;;;22.99;59.57;98851.16;4939144;28;20050;-69
2023/08/09 04:30:12;;;;;;;5.68;2.42;;;;;;;23.15;59.01;98821.66;4957235;28;20053;-70
2023/08/09 04:32:40;;;;;;;6.47;2.78;;;;;;;23.32;58.27;98862.88;4956805;28;20026;-67
2023/08/09 04:35:09;;;;;;;6.03;2.90;;;;;;;23.57;58.21;98845.94;4940413;28;20054;-69
2023/08/09 04:37:35;;;;;;;5.82;2.63;;;;;;;23.78;57.31;98851.13;4939841;28;20054;-68
2023/08/09 04:40:10;;;;;;;4.50;2.78;;;;;;;23.93;57.13;98848.16;4937720;28;20529;-69
2023/08/09 04:42:40;;;;;;;3.83;2.38;;;;;;;23.94;56.28;98856.06;4938753;28;20054;-69
2023/08/09 04:45:30;;;;;;;2.80;2.60;;;;;;;23.81;56.18;98846.09;4938639;28;20046;-69
2023/08/09 04:48:01;;;;;;;7.35;3.33;;;;;;;23.70;56.22;98845.91;4936909;28;20425;-69
2023/08/09 04:50:32;;;;;;;7.47;2.70;;;;;;;23.61;56.49;98848.00;4943409;28;20043;-69
2023/08/09 04:52:59;;;;;;;2.72;2.38;;;;;;;23.79;56.51;98844.63;4937147;28;20057;-67
2023/08/09 04:55:26;;;;;;;5.60;3.38;;;;;;;24.10;56.15;98849.31;4938621;28;20046;-67
2023/08/09 05:00:42;;;;;;;10.00;2.80;;;;;;;24.94;53.95;98858.13;4936636;28;20409;-67
2023/08/09 05:03:07;;;;;;;4.15;3.00;;;;;;;25.31;52.21;98830.97;4938352;28;20406;-67
2023/08/09 05:05:34;;;;;;;4.82;2.42;;;;;;;25.51;51.25;98844.41;4938149;28;20050;-67
2023/08/09 05:08:01;;;;;;;9.10;2.53;;;;;;;25.60;50.85;98840.34;4938113;28;20506;-67
2023/08/09 05:10:26;;;;;;;7.60;3.00;;;;;;;25.81;50.96;98847.31;4936933;28;20382;-67
2023/08/09 05:12:52;;;;;;;11.20;3.92;;;;;;;26.08;50.28;98848.66;4938125;28;20454;-67
2023/08/09 05:15:18;;;;;;;14.45;3.33;;;;;;;26.31;50.00;98842.50;4938121;28;20409;-67
2023/08/09 05:17:43;;;;;;;6.03;2.97;;;;;;;26.63;48.80;98856.81;4937982;28;20054;-69
2023/08/09 05:20:10;;;;;;;3.78;3.40;;;;;;;26.87;48.27;98857.69;4936851;28;20054;-69
2023/08/09 05:23:06;;;;;;;5.05;2.70;;;;;;;27.21;47.85;98853.41;4937810;28;20123;-68
2023/08/09 05:25:32;;;;;;;7.20;3.20;;;;;;;27.13;48.04;98856.50;4938149;28;20043;-68
2023/08/09 05:27:59;;;;;;;8.82;3.10;;;;;;;27.29;47.36;98864.84;4937399;28;20059;-69
2023/08/09 05:30:26;;;;;;;5.32;3.03;;;;;;;27.59;46.99;98867.53;4937949;28;20069;-69
2023/08/09 05:32:59;;;;;;;3.67;2.47;;;;;;;28.13;46.63;98862.69;4938092;28;20070;-68
2023/08/09 05:35:26;;;;;;;4.88;3.10;;;;;;;28.56;45.60;98866.91;4936736;28;20057;-67
2023/08/09 05:37:53;;;;;;;3.95;3.30;;;;;;;28.55;45.10;98860.59;4936805;28;20049;-68
2023/08/09 05:40:21;;;;;;;10.05;4.05;;;;;;;28.24;45.06;98886.53;4936608;28;20050;-69
2023/08/09 05:42:47;;;;;;;6.65;3.28;;;;;;;27.87;46.07;98875.03;4938610;28;20050;-69
2023/08/09 05:48:09;;;;;;;8.75;3.33;;;;;;;27.07;47.29;98874.69;4900879;29;20501;-67
2023/08/09 05:50:34;;;;;;;5.28;3.20;;;;;;;26.70;47.91;98880.25;4916968;29;20047;-67
2023/08/09 05:53:01;;;;;;;5.32;2.80;;;;;;;26.37;48.48;98880.69;4936924;28;20165;-67
2023/08/09 05:55:27;;;;;;;3.30;3.00;;;;;;;26.12;49.17;98888.13;4937271;28;20465;-68
2023/08/09 05:58:17;;;;;;;3.00;2.67;;;;;;;26.00;50.06;98868.09;4923202;28;20050;-67
2023/08/09 06:00:43;;;;;;;4.03;3.13;;;;;;;26.15;49.87;98874.00;4937005;28;20513;-67
2023/08/09 06:03:10;;;;;;;4.10;3.05;;;;;;;26.98;48.68;98863.22;4936985;28;20462;-68
2023/08/09 06:05:41;;;;;;;5.22;2.97;;;;;;;28.40;45.74;98873.97;4936649;28;20414;-68
2023/08/09 06:08:10;;;;;;;3.85;3.47;;;;;;;29.67;42.98;98855.16;4936769;28;20042;-68
2023/08/09 06:13:27;;;;;;;3.58;3.20;;;;;;;31.24;39.65;98873.59;4917752;29;20039;-66
2023/08/09 06:15:53;;;;;;;5.25;2.97;;;;;;;32.17;37.98;98853.84;4917366;29;20042;-67
2023/08/09 06:18:21;;;;;;;5.97;3.17;;;;;;;32.43;36.85;98850.94;4917443;29;20046;-67
2023/08/09 06:20:48;;;;;;;5.13;3.10;;;;;;;32.01;37.21;98862.03;4917330;29;20047;-68
2023/08/09 06:23:38;;;;;;;3.67;3.30;;;;;;;31.69;37.81;98842.84;4917816;29;20054;-67
2023/08/09 06:26:05;;;;;;;4.75;3.15;;;;;;;31.49;38.14;98861.13;4917325;29;20058;-67
2023/08/09 06:28:31;;;;;;;3.38;3.05;;;;;;;31.14;38.46;98873.50;4898546;29;20048;-67
2023/08/09 06:30:56;;;;;;;4.85;3.47;;;;;;;31.15;39.19;98869.66;4898048;29;20044;-68
2023/08/09 06:33:23;;;;;;;5.53;3.45;;;;;;;31.63;37.98;98865.91;4897202;29;20043;-68
2023/08/09 06:38:40;;;;;;;8.00;3.90;;;;;;;31.80;37.77;98871.28;4898306;29;20054;-68
2023/08/09 06:41:05;;;;;;;4.45;3.75;;;;;;;31.43;38.20;98873.19;4898240;29;20055;-66
2023/08/09 06:43:30;;;;;;;5.18;3.20;;;;;;;31.27;38.91;98881.31;4897314;29;20054;-68
2023/08/09 06:45:58;;;;;;;6.97;3.92;;;;;;;30.76;39.26;98885.47;4897046;29;20056;-67
2023/08/09 06:48:24;;;;;;;5.75;3.70;;;;;;;30.06;40.65;98893.63;4898510;29;20039;-69
2023/08/09 06:50:50;;;;;;;4.07;3.60;;;;;;;29.36;41.65;98866.69;4898510;29;20156;-70
2023/08/09 06:53:18;;;;;;;8.25;3.65;;;;;;;28.74;43.12;98880.41;4898432;29;20051;-71
2023/08/09 06:55:44;;;;;;;5.65;3.45;;;;;;;28.18;43.82;98873.81;4915192;28;20125;-70
2023/08/09 06:58:10;;;;;;;4.57;3.78;;;;;;;27.80;44.67;98890.72;4902208;29;20044;-71
2023/08/09 07:01:02;;;;;;;4.28;3.63;;;;;;;27.78;45.53;98890.13;4902178;29;20056;-70
2023/08/09 07:03:29;;;;;;;10.15;3.47;;;;;;;27.45;45.75;98890.69;4900824;29;20047;-70
2023/08/09 07:05:58;;;;;;;5.18;3.58;;;;;;;27.46;46.01;98884.97;4902163;29;20067;-70
2023/08/09 07:08:23;;;;;;;5.18;3.10;;;;;;;27.49;46.06;98883.69;4900682;29;20047;-71
2023/08/09 07:11:14;;;;;;;4.22;3.25;;;;;;;28.01;45.92;98886.53;4900478;29;20077;-72
2023/08/09 07:13:39;;;;;;;4.72;3.08;;;;;;;28.37;44.52;98891.75;4902061;29;20036;-70
2023/08/09 07:16:05;;;;;;;4.90;2.95;;;;;;;29.32;43.01;98904.81;4900903;29;20059;-70
2023/08/09 07:18:30;;;;;;;3.35;3.00;;;;;;;31.00;40.35;98895.09;4901796;29;20047;-71
2023/08/09 07:20:55;;;;;;;5.55;3.25;;;;;;;32.63;37.53;98880.50;4900149;29;20056;-71
2023/08/09 07:23:22;;;;;;;5.28;3.42;;;;;;;34.34;34.47;98872.53;4900642;29;20047;-71
2023/08/09 07:25:51;;;;;;;3.97;3.40;;;;;;;35.69;32.28;98887.75;4901837;29;20058;-71
2023/08/09 07:28:16;;;;;;;3.83;3.40;;;;;;;36.71;30.51;98818.88;4935159;28;20509;-71
2023/08/09 07:30:41;;;;;;;5.32;3.85;;;;;;;37.99;28.86;98821.16;4939995;28;20047;-71
2023/08/09 07:33:06;;;;;;;6.80;3.97;;;;;;;39.46;27.08;98833.75;4938254;28;20053;-70
2023/08/09 07:35:33;;;;;;;5.32;4.03;;;;;;;40.69;25.56;98831.97;4939947;28;20047;-70
2023/08/09 07:38:03;;;;;;;5.60;4.13;;;;;;;41.24;25.04;98835.78;4938361;28;20493;-69
2023/08/09 07:40:31;;;;;;;6.38;4.47;;;;;;;41.33;24.74;98845.00;4937957;28;20066;-71
2023/08/09 07:43:01;;;;;;;7.18;5.20;;;;;;;41.94;24.41;98828.06;4939636;28;20050;-70
2023/08/09 07:45:29;;;;;;;5.15;4.65;;;;;;;42.27;23.44;98836.66;4933842;28;20045;-71
2023/08/09 07:47:55;;;;;;;5.07;4.60;;;;;;;42.20;23.78;98825.19;4939673;28;20043;-71
2023/08/09 07:50:21;;;;;;;5.47;4.90;;;;;;;41.88;23.80;98826.59;4939472;28;20054;-71
2023/08/09 07:52:52;;;;;;;5.18;4.75;;;;;;;41.96;23.52;98823.81;4943493;28;20042;-71
2023/08/09 07:55:18;;;;;;;4.70;4.30;;;;;;;41.35;23.95;98825.06;4937859;28;20398;-70
2023/08/09 07:57:46;;;;;;;5.55;4.82;;;;;;;39.94;25.27;98822.72;4939044;28;20046;-69
2023/08/09 08:00:17;;;;;;;4.78;4.38;;;;;;;38.17;26.64;98819.41;4939309;28;20445;-70
2023/08/09 08:02:49;;;;;;;4.45;4.05;;;;;;;36.35;29.16;98812.13;4939452;28;20042;-70
2023/08/09 08:05:44;;;;;;;6.20;4.07;;;;;;;35.21;30.64;98861.81;4934611;28;20808;-70
2023/08/09 08:08:10;;;;;;;4.25;3.78;;;;;;;34.28;32.64;98817.50;4935395;28;20406;-69
2023/08/09 08:10:35;;;;;;;4.95;3.70;;;;;;;34.38;32.52;98814.69;4917875;29;20205;-71
2023/08/09 08:13:02;;;;;;;4.20;3.80;;;;;;;34.69;32.53;98810.63;4919628;28;20051;-70
2023/08/09 08:15:27;;;;;;;5.40;3.70;;;;;;;34.79;32.04;98802.28;4934566;28;20055;-72
2023/08/09 08:17:54;;;;;;;12.68;3.78;;;;;;;34.77;32.32;98807.25;4934845;28;20135;-71
2023/08/09 08:20:22;;;;;;;3.17;2.95;;;;;;;34.70;32.40;98803.16;4932345;28;20053;-72
2023/08/09 08:22:49;;;;;;;4.00;3.50;;;;;;;34.50;32.35;98815.19;4937820;28;20050;-71
2023/08/09 08:25:17;;;;;;;3.85;3.55;;;;;;;34.17;32.57;98814.75;4938644;28;20050;-71
2023/08/09 08:27:45;;;;;;;5.00;4.50;;;;;;;33.88;33.03;98819.28;4938642;28;20502;-71
2023/08/09 08:30:13;;;;;;;4.88;3.40;;;;;;;33.60;33.58;98822.66;4937390;28;20058;-70
2023/08/09 08:32:48;;;;;;;5.28;3.45;;;;;;;33.40;34.18;98824.34;4936827;28;20042;-70
2023/08/09 08:35:33;;;;;;;3.97;3.38;;;;;;;33.50;34.11;98815.22;4937187;28;20058;-71
2023/08/09 08:38:05;;;;;;;3.80;3.25;;;;;;;34.10;33.33;98821.69;4938729;28;20046;-70
2023/08/09 08:40:35;;;;;;;5.38;4.05;;;;;;;34.69;32.62;98837.47;4937819;28;20046;-70
2023/08/09 08:43:27;;;;;;;3.90;3.42;;;;;;;35.24;31.64;98836.28;4938608;28;20497;-71
2023/08/09 08:45:58;;;;;;;6.95;3.75;;;;;;;35.76;31.37;98840.28;4938576;28;20042;-71
2023/08/09 08:48:35;;;;;;;4.22;3.53;;;;;;;36.37;30.01;98846.81;4938681;28;20038;-69
2023/08/09 08:51:07;;;;;;;3.80;3.50;;;;;;;36.17;30.40;98848.97;4938493;28;20413;-70
2023/08/09 08:53:34;;;;;;;4.30;3.58;;;;;;;36.06;30.25;98848.28;4938381;28;20046;-70
2023/08/09 08:56:26;;;;;;;6.38;3.85;;;;;;;36.50;30.18;98848.03;4936921;28;20435;-71
2023/08/09 08:58:54;;;;;;;4.45;3.92;;;;;;;36.45;30.20;98852.84;4938256;28;20043;-70
2023/08/09 09:01:20;;;;;;;4.97;3.65;;;;;;;35.69;30.89;98857.22;4938356;28;20050;-71
2023/08/09 09:03:46;;;;;;;7.18;3.72;;;;;;;34.80;31.53;98848.25;4938318;28;20050;-71
2023/08/09 09:06:14;;;;;;;4.88;3.78;;;;;;;33.87;32.80;98859.09;4938174;28;20411;-71
2023/08/09 09:08:59;;;;;;;8.90;5.15;;;;;;;33.10;33.94;98868.50;4938446;28;20529;-71
2023/08/09 09:11:28;;;;;;;4.63;3.42;;;;;;;32.14;34.72;98915.03;4938376;28;20057;-71
2023/08/09 09:13:53;;;;;;;5.85;4.10;;;;;;;31.49;35.98;98924.50;4938044;28;20046;-70
2023/08/09 09:16:22;;;;;;;10.68;3.50;;;;;;;30.98;36.70;98918.47;4938038;28;20050;-70
2023/08/09 09:18:54;;;;;;;4.07;3.50;;;;;;;30.51;37.83;98919.00;4937487;28;20050;-70
2023/08/09 09:21:45;;;;;;;5.88;3.53;;;;;;;30.51;38.64;98923.66;4920128;28;20086;-70
2023/08/09 09:24:17;;;;;;;7.13;3.75;;;;;;;29.90;39.03;98923.66;4940858;28;20540;-70
2023/08/09 09:26:52;;;;;;;3.28;3.08;;;;;;;29.90;39.94;98933.81;4947821;28;20751;-70
2023/08/09 09:29:20;;;;;;;4.15;3.60;;;;;;;29.62;40.81;98926.47;4944883;28;20532;-70
2023/08/09 09:31:45;;;;;;;4.05;3.60;;;;;;;29.12;41.86;98921.75;4939029;28;20045;-70
2023/08/09 09:34:14;;;;;;;4.47;3.22;;;;;;;29.05;42.41;98921.06;4938015;28;20042;-71
2023/08/09 09:36:49;;;;;;;6.22;3.60;;;;;;;30.12;41.63;98931.97;4938090;28;20047;-71
2023/08/09 09:39:14;;;;;;;5.75;3.67;;;;;;;32.19;38.54;98918.69;4937921;28;20039;-71
2023/08/09 09:41:47;;;;;;;7.72;3.47;;;;;;;34.99;34.38;98912.09;4937239;28;20556;-71
2023/08/09 09:44:38;;;;;;;7.05;4.30;;;;;;;38.20;29.91;98868.91;4937114;28;20441;-70
2023/08/09 09:47:04;;;;;;;5.93;3.90;;;;;;;40.53;26.81;98868.75;4937892;28;20061;-71
2023/08/09 09:49:34;;;;;;;5.18;4.68;;;;;;;42.18;24.66;98897.53;4936963;28;20031;-71
2023/08/09 09:52:00;;;;;;;6.78;4.95;;;;;;;43.08;23.06;98901.66;4943661;28;20413;-69
2023/08/09 09:54:26;;;;;;;5.72;5.13;;;;;;;42.52;23.10;98911.41;4934799;28;20058;-70
2023/08/09 09:56:52;;;;;;;5.35;4.85;;;;;;;41.11;24.34;98915.06;4934055;28;20046;-69
2023/08/09 09:59:22;;;;;;;5.35;4.85;;;;;;;39.28;25.41;98929.59;4933236;28;20859;-69
2023/08/09 10:01:55;;;;;;;4.50;4.07;;;;;;;37.63;27.44;98953.69;4932843;28;20050;-68
2023/08/09 10:04:21;;;;;;;5.15;4.65;;;;;;;35.95;29.43;98924.41;4931760;28;20061;-67
2023/08/09 10:06:48;;;;;;;4.07;3.78;;;;;;;34.67;30.37;98926.38;4933764;28;20498;-69
2023/08/09 10:09:18;;;;;;;4.40;4.00;;;;;;;33.92;32.06;98928.25;4932655;28;20827;-69
2023/08/09 10:11:50;;;;;;;4.47;4.05;;;;;;;34.50;31.80;98920.38;4949198;28;20391;-68
2023/08/09 10:14:19;;;;;;;4.85;4.38;;;;;;;36.16;30.31;98870.34;4935835;28;20038;-69
2023/08/09 10:16:48;;;;;;;4.50;4.15;;;;;;;37.51;28.30;98879.03;4933328;28;20050;-70
2023/08/09 10:19:22;;;;;;;6.07;4.35;;;;;;;37.61;27.67;98870.53;4934480;28;20049;-70
2023/08/09 10:21:50;;;;;;;4.80;4.30;;;;;;;36.83;28.98;98885.09;4933463;28;20058;-69
2023/08/09 10:24:19;;;;;;;4.57;4.15;;;;;;;35.60;30.58;98884.78;4934062;28;20053;-67
2023/08/09 10:26:49;;;;;;;11.45;4.13;;;;;;;34.27;31.76;98887.78;4948638;28;20058;-67
2023/08/09 10:29:20;;;;;;;4.15;3.85;;;;;;;32.92;34.41;98896.66;4934918;28;20047;-66
2023/08/09 10:32:02;;;;;;;5.35;3.53;;;;;;;31.91;36.34;98933.66;4934537;28;20038;-68
2023/08/09 10:37:53;;;;;;;3.78;3.45;;;;;;;29.56;39.80;98939.31;4930441;28;20042;-69
2023/08/09 10:40:26;;;;;;;5.43;3.88;;;;;;;28.88;41.37;98953.16;4936131;28;20050;-69
2023/08/09 10:42:52;;;;;;;4.55;4.00;;;;;;;28.43;42.32;98947.53;4935974;28;20164;-69
2023/08/09 10:45:19;;;;;;;5.72;4.18;;;;;;;28.10;43.44;98961.84;4933261;28;20506;-68
2023/08/09 10:47:48;;;;;;;5.70;3.97;;;;;;;27.86;43.81;98957.44;4933373;28;20409;-68
2023/08/09 10:50:18;;;;;;;7.32;4.07;;;;;;;27.70;44.16;98957.06;4933538;28;20406;-68
2023/08/09 10:53:08;;;;;;;5.28;3.78;;;;;;;27.66;44.58;98971.44;4946698;28;20053;-70
2023/08/09 10:55:33;;;;;;;8.23;3.95;;;;;;;27.62;45.16;98954.69;4933498;28;20050;-71
2023/08/09 10:58:00;;;;;;;7.50;4.93;;;;;;;27.50;44.83;98972.97;4933057;28;20046;-72
2023/08/09 11:00:28;;;;;;;5.38;3.88;;;;;;;27.41;44.93;98956.03;4934130;28;20057;-69
2023/08/09 11:02:56;;;;;;;5.85;4.18;;;;;;;27.33;44.62;98978.25;4933129;28;20051;-70
2023/08/09 11:05:23;;;;;;;7.65;3.60;;;;;;;27.34;44.85;98963.50;4934537;28;20054;-70
2023/08/09 11:07:56;;;;;;;5.07;3.63;;;;;;;27.40;45.60;98956.28;4934968;28;20502;-69
2023/08/09 11:10:39;;;;;;;5.63;3.80;;;;;;;27.58;45.41;98969.06;4935228;28;20050;-68
2023/08/09 11:13:14;;;;;;;10.43;3.63;;;;;;;27.75;44.59;98942.66;4936482;28;20402;-70
2023/08/09 11:15:46;;;;;;;5.70;4.57;;;;;;;28.00;43.76;98936.94;4936039;28;20053;-69
2023/08/09 11:18:12;;;;;;;4.90;4.40;;;;;;;28.18;42.58;98948.63;4935194;28;20046;-69
2023/08/09 11:20:40;;;;;;;5.88;4.20;;;;;;;28.36;42.30;98928.44;4931098;28;20426;-70
2023/08/09 11:23:11;;;;;;;7.35;4.10;;;;;;;28.48;42.28;98942.13;4933365;28;20034;-69
2023/08/09 11:25:38;;;;;;;4.15;3.70;;;;;;;28.56;42.33;98928.03;4932272;28;20038;-71
2023/08/09 11:28:05;;;;;;;6.97;4.40;;;;;;;28.56;42.62;98919.81;4933809;28;20051;-69
2023/08/09 11:30:32;;;;;;;4.28;3.90;;;;;;;28.49;42.46;98906.25;4935137;28;20061;-69
2023/08/09 11:33:07;;;;;;;4.82;3.67;;;;;;;28.38;42.83;98893.41;4934721;28;20043;-70
2023/08/09 11:35:38;;;;;;;3.92;3.60;;;;;;;28.11;43.50;98900.44;4935651;28;20043;-69
2023/08/09 11:38:09;;;;;;;6.93;4.00;;;;;;;27.90;43.75;98901.06;4919585;28;20047;-69
2023/08/09 11:41:00;;;;;;;7.55;3.83;;;;;;;27.86;45.06;98899.91;4935491;28;20042;-69
2023/08/09 11:43:26;;;;;;;6.97;4.35;;;;;;;27.39;45.36;98888.91;4937460;28;20046;-69
2023/08/09 11:45:54;;;;;;;4.25;3.85;;;;;;;27.18;45.44;98903.16;4938815;28;20525;-69
2023/08/09 11:51:26;;;;;;;6.63;4.00;;;;;;;26.91;45.15;98916.34;4939035;28;20061;-69
2023/08/09 11:53:52;;;;;;;4.18;3.75;;;;;;;26.70;46.47;98920.44;4938992;28;20091;-69
2023/08/09 11:56:20;;;;;;;6.57;3.80;;;;;;;26.51;46.24;98925.09;4934768;28;20042;-69
2023/08/09 11:58:54;;;;;;;4.00;3.60;;;;;;;26.36;47.63;98928.22;4935605;28;20414;-68
2023/08/09 12:02:09;;;;;;;5.32;4.15;;;;;;;26.12;47.43;98937.28;4924042;28;20046;-69
2023/08/09 12:04:39;;;;;;;7.63;3.95;;;;;;;26.06;47.66;98916.38;4928974;28;20070;-69
2023/08/09 12:07:09;;;;;;;6.35;4.13;;;;;;;26.04;48.13;98918.47;4937638;28;20054;-68
2023/08/09 12:09:45;;;;;;;5.88;3.90;;;;;;;26.09;47.50;98926.81;4936917;28;20054;-68
2023/08/09 12:12:19;;;;;;;6.65;4.07;;;;;;;26.15;47.42;98928.66;4928189;28;20043;-67
2023/08/09 12:14:57;;;;;;;7.00;3.90;;;;;;;26.40;47.84;98950.47;4936995;28;20055;-70